Queen Elizabeth — ZCEF2 — position and weather

sailwx.info

Track history (hours):
 
Tides and Currents Weather Stations Pressure Air Temp Water Temp Dewpoint Dewpoint Depression Visibility Wind Speed Wind Dir Waves Ship Positions

Queen Elizabeth

Last reported at 2017-Jul-22 12:28 UTC. Time now 2017-Jul-22 12:41 UTC.
Position N 59°57' E 030°12'.

Length 294 m; draft 8 m.

Type: Passenger vessel. MMSI: 310625000.

Date/timePositionNaut miles runAvg speedWind from/ knotsBaromVisibWave heightAir tempDewpointWater temp
2017-Jul-22 12:28N 59°57' E 030°12'0 0.0
2017-Jul-22 11:58N 59°57' E 030°12'0 0.0
2017-Jul-22 11:28N 59°57' E 030°12'0 0.0
2017-Jul-22 10:58N 59°57' E 030°12'0 0.0
2017-Jul-22 10:28N 59°57' E 030°12'0 0.0
2017-Jul-22 09:58N 59°57' E 030°12'0 0.0
2017-Jul-22 09:28N 59°57' E 030°12'0 0.0
2017-Jul-22 08:58N 59°57' E 030°12'0 0.0
2017-Jul-22 08:28N 59°57' E 030°12'0 0.0
2017-Jul-22 07:58N 59°57' E 030°12'0 0.0
2017-Jul-22 07:28N 59°57' E 030°12'0 0.0
2017-Jul-22 06:58N 59°57' E 030°12'0 0.0
2017-Jul-22 06:28N 59°57' E 030°12'0 0.0
2017-Jul-22 05:58N 59°57' E 030°12'0 0.0
2017-Jul-22 05:28N 59°57' E 030°12'0 0.0
2017-Jul-22 04:58N 59°57' E 030°12'0 0.0
2017-Jul-22 04:28N 59°57' E 030°12'0 0.1
2017-Jul-22 04:00N 59°57' E 030°11'1 1.5
2017-Jul-22 03:30N 59°57' E 030°10'5 9.2
2017-Jul-22 03:01N 59°55' E 030°01'510.6
2017-Jul-22 02:30N 59°57' E 029°51'5 9.8
2017-Jul-22 02:01N 59°59' E 029°43'612.0
2017-Jul-22 01:30N 60°01' E 029°31'510.6
2017-Jul-22 01:01N 60°02' E 029°21'715.0
2017-Jul-22 00:31N 60°01' E 029°06'815.0
2017-Jul-22 00:00N 60°02' E 028°51'714.9
2017-Jul-21 23:31N 60°02' E 028°36'714.5
2017-Jul-21 23:01N 60°04' E 028°22'713.5
2017-Jul-21 22:31N 60°08' E 028°11'714.6
2017-Jul-21 22:01N 60°10' E 027°57'713.9
2017-Jul-21 21:31N 60°10' E 027°43'714.9
2017-Jul-21 21:01N 60°06' E 027°30'715.0
2017-Jul-21 20:31N 60°02' E 027°17'815.0
2017-Jul-21 20:00N 59°58' E 027°04'714.7
2017-Jul-21 19:31N 59°59' E 026°49'815.2
2017-Jul-21 19:00N 59°59' E 026°34'815.3
2017-Jul-21 18:31N 59°57' E 026°19'715.0
2017-Jul-21 18:00N 59°55' E 026°05'815.4
2017-Jul-21 17:31N 59°53' E 025°50'815.3
2017-Jul-21 17:00N 59°51' E 025°35'815.5
2017-Jul-21 16:30N 59°49' E 025°20'815.8
2017-Jul-21 16:00N 59°48' E 025°05'815.9
2017-Jul-21 15:31N 59°44' E 024°52'816.4
2017-Jul-21 15:01N 59°37' E 024°42'612.7
2017-Jul-21 14:30N 59°31' E 024°45'4 7.8
2017-Jul-21 14:01N 59°27' E 024°46'0 0.6
2017-Jul-21 13:30N 59°27' E 024°46'0 0.0
2017-Jul-21 13:00N 59°27' E 024°46'0 0.0
2017-Jul-21 12:30N 59°27' E 024°46'0 0.0
2017-Jul-21 12:00N 59°27' E 024°46'0 0.0
2017-Jul-21 11:30N 59°27' E 024°46'0 0.0
2017-Jul-21 11:00N 59°27' E 024°46'0 0.0
2017-Jul-21 10:30N 59°27' E 024°46'0 0.0
2017-Jul-21 10:00N 59°27' E 024°46'0 0.0
2017-Jul-21 09:30N 59°27' E 024°46'0 0.0
2017-Jul-21 09:00N 59°27' E 024°46'0 0.0
2017-Jul-21 08:30N 59°27' E 024°46'0 0.0
2017-Jul-21 08:00N 59°27' E 024°46'0 0.0
2017-Jul-21 07:30N 59°27' E 024°46'0 0.0
2017-Jul-21 06:57N 59°27' E 024°46'0 0.0
2017-Jul-21 06:30N 59°27' E 024°46'0 0.0
2017-Jul-21 06:00N 59°27' E 024°46'0 0.9
2017-Jul-21 05:30N 59°27' E 024°46'4 9.0
2017-Jul-21 05:01N 59°30' E 024°39'612.4
2017-Jul-21 04:31N 59°30' E 024°27'1019.8
2017-Jul-21 04:01N 59°29' E 024°07'1020.3
2017-Jul-21 03:31N 59°28' E 023°47'1020.3
2017-Jul-21 03:01N 59°27' E 023°27'1019.9
2017-Jul-21 02:31N 59°27' E 023°08'1019.8
2017-Jul-21 02:01N 59°26' E 022°48'1019.8
2017-Jul-21 01:31N 59°23' E 022°30'1019.8
2017-Jul-21 01:01N 59°23' E 022°10'7431.2
2017-Jul-21 01:00N 59°18' E 022°00'714.9 360 / 151015.810.8 15.011.316.0
2017-Jul-21 00:30N 59°23' E 021°51'1019.9
2017-Jul-21 00:00N 59°24' E 021°31'1019.6
2017-Jul-20 23:30N 59°24' E 021°12'1019.6
2017-Jul-20 23:00N 59°24' E 020°53'1019.7
2017-Jul-20 22:30N 59°25' E 020°34'1019.4
2017-Jul-20 22:00N 59°25' E 020°15'816.1
2017-Jul-20 21:30N 59°31' E 020°04'1121.0
2017-Jul-20 21:00N 59°40' E 019°53'1122.7
2017-Jul-20 20:30N 59°48' E 019°38'713.9
2017-Jul-20 20:00N 59°47' E 019°25'816.0
2017-Jul-20 19:30N 59°44' E 019°10'714.4
2017-Jul-20 19:01N 59°40' E 018°57'5 9.3
2017-Jul-20 18:30N 59°37' E 018°50'611.8
2017-Jul-20 18:01N 59°34' E 018°40'5 9.7
2017-Jul-20 17:30N 59°32' E 018°32'510.4
2017-Jul-20 17:00N 59°28' E 018°26'4 8.3
2017-Jul-20 16:30N 59°23' E 018°27'3 6.7
2017-Jul-20 16:00N 59°22' E 018°21'611.3
2017-Jul-20 15:30N 59°20' E 018°11'2 4.5
2017-Jul-20 14:59N 59°19' E 018°06'0 0.0
2017-Jul-20 13:59N 59°19' E 018°06'0 0.0
2017-Jul-20 13:29N 59°19' E 018°06'0 0.0
2017-Jul-20 12:56N 59°19' E 018°06'0 0.0
2017-Jul-20 12:29N 59°19' E 018°06'0 0.0
2017-Jul-20 11:59N 59°19' E 018°06'0 0.0
2017-Jul-20 11:29N 59°19' E 018°06'0 0.0
2017-Jul-20 10:59N 59°19' E 018°06'0 0.0
2017-Jul-20 10:29N 59°19' E 018°06'0 0.0
2017-Jul-20 09:59N 59°19' E 018°06'0 0.0
2017-Jul-20 09:29N 59°19' E 018°06'0 0.0
2017-Jul-20 08:59N 59°19' E 018°06'0 0.0
2017-Jul-20 08:29N 59°19' E 018°06'0 0.0
2017-Jul-20 07:59N 59°19' E 018°06'0 0.0
2017-Jul-20 07:29N 59°19' E 018°06'0 0.0
2017-Jul-20 06:59N 59°19' E 018°06'0 0.0
2017-Jul-20 06:29N 59°19' E 018°06'0 0.0
2017-Jul-20 05:59N 59°19' E 018°06'0 0.4
2017-Jul-20 05:30N 59°19' E 018°07'4 8.9
2017-Jul-20 05:00N 59°21' E 018°14'510.0
2017-Jul-20 04:30N 59°22' E 018°24'3 5.6
2017-Jul-20 04:00N 59°25' E 018°25'510.1
2017-Jul-20 03:30N 59°30' E 018°28'5 9.9
2017-Jul-20 03:00N 59°33' E 018°35'611.2
2017-Jul-20 02:30N 59°35' E 018°45'611.9
2017-Jul-20 02:00N 59°39' E 018°54'612.0
2017-Jul-20 01:30N 59°42' E 019°04'816.6
2017-Jul-20 01:00N 59°45' E 019°19'611.9
2017-Jul-20 00:30N 59°48' E 019°30'918.6
2017-Jul-20 00:00N 59°46' E 019°48'1019.9
2017-Jul-19 23:30N 59°39' E 020°02'919.0
2017-Jul-19 23:00N 59°30' E 020°10'1019.5
2017-Jul-19 22:30N 59°21' E 020°02'1020.3
2017-Jul-19 22:00N 59°13' E 019°50'1020.2
2017-Jul-19 21:30N 59°05' E 019°37'5520.3
2017-Jul-19 18:46N 58°19' E 018°39'520.4
2017-Jul-19 18:30N 58°15' E 018°34'1020.4
2017-Jul-19 18:01N 58°06' E 018°24'1020.2
2017-Jul-19 17:31N 57°57' E 018°16'5120.1
2017-Jul-19 14:57N 57°10' E 017°36'920.3
2017-Jul-19 14:31N 57°01' E 017°30'1020.2
2017-Jul-19 14:00N 56°52' E 017°24'1020.4
2017-Jul-19 13:31N 56°42' E 017°17'1020.4
2017-Jul-19 13:01N 56°33' E 017°10'211269.6
2017-Jul-19 13:00N 56°54' E 017°12'3163.8 060 / 51018.0 5.4 17.012.317.0
2017-Jul-19 12:31N 56°23' E 017°04'1020.1
2017-Jul-19 12:01N 56°14' E 016°58'1019.9
2017-Jul-19 11:31N 56°05' E 016°51'1019.8
2017-Jul-19 11:01N 55°59' E 016°37'1019.9
2017-Jul-19 10:31N 55°54' E 016°22'1020.1
2017-Jul-19 10:00N 55°49' E 016°06'1020.1
2017-Jul-19 09:31N 55°44' E 015°51'1020.1
2017-Jul-19 09:01N 55°39' E 015°35'1020.2
2017-Jul-19 08:31N 55°35' E 015°19'1020.0
2017-Jul-19 08:01N 55°30' E 015°04'1020.1
2017-Jul-19 07:31N 55°26' E 014°48'1019.5
2017-Jul-19 07:01N 55°20' E 014°34'1019.8
2017-Jul-19 06:31N 55°11' E 014°25'1019.9
2017-Jul-19 06:00N 55°04' E 014°13'1019.9
2017-Jul-19 05:31N 54°59' E 013°58'1020.1
2017-Jul-19 05:01N 54°56' E 013°41'8467.2
2017-Jul-19 05:00N 54°54' E 013°54'1735.1 230 / 41019.527.0 16.012.416.0
2017-Jul-19 04:30N 54°53' E 013°24'1019.9
2017-Jul-19 04:01N 54°50' E 013°08'1019.7
2017-Jul-19 03:30N 54°47' E 012°52'1019.3
2017-Jul-19 02:58N 54°42' E 012°36'919.4
2017-Jul-19 02:31N 54°36' E 012°24'918.9
2017-Jul-19 02:01N 54°28' E 012°15'1118.0
2017-Jul-19 01:24N 54°25' E 011°57'819.6
2017-Jul-19 01:00N 54°25' E 011°44'1019.7
2017-Jul-19 00:31N 54°29' E 011°28'1019.7
2017-Jul-19 00:01N 54°34' E 011°13'1019.1
2017-Jul-18 23:30N 54°39' E 010°59'816.3
2017-Jul-18 23:00N 54°46' E 010°52'815.8
2017-Jul-18 22:30N 54°54' E 010°53'1019.5
2017-Jul-18 22:01N 55°02' E 011°00'1019.3
2017-Jul-18 21:30N 55°12' E 011°05'1019.0
2017-Jul-18 21:00N 55°21' E 011°02'5413.4
2017-Jul-18 17:00N 56°06' E 011°54'41003.2 300 / 51019.627.0 17.011.517.0
2017-Jul-18 16:59N 56°10' E 011°57'919.2
2017-Jul-18 16:30N 56°12' E 012°13'918.5
2017-Jul-18 16:01N 56°09' E 012°29'917.1
2017-Jul-18 15:31N 56°03' E 012°40'714.7
2017-Jul-18 15:01N 55°55' E 012°39'1212.2
2017-Jul-18 14:00N 55°43' E 012°38'0 0.0
2017-Jul-18 13:30N 55°43' E 012°38'0 0.0
2017-Jul-18 13:00N 55°43' E 012°38'0 0.0
2017-Jul-18 12:30N 55°43' E 012°38'0 0.0
2017-Jul-18 12:00N 55°43' E 012°38'0 0.0
2017-Jul-18 11:30N 55°43' E 012°38'0 0.0
2017-Jul-18 11:00N 55°43' E 012°38'0 0.0
2017-Jul-18 10:30N 55°43' E 012°38'0 0.0
2017-Jul-18 10:00N 55°43' E 012°38'0 0.0
2017-Jul-18 09:30N 55°43' E 012°38'0 0.0
2017-Jul-18 09:00N 55°43' E 012°38'0 0.0
2017-Jul-18 08:30N 55°43' E 012°38'0 0.0
2017-Jul-18 08:00N 55°43' E 012°38'0 0.0
2017-Jul-18 07:30N 55°43' E 012°38'0 0.0
2017-Jul-18 07:00N 55°43' E 012°38'0 0.0
2017-Jul-18 06:30N 55°43' E 012°38'0 0.0
2017-Jul-18 06:00N 55°43' E 012°38'0 0.0
2017-Jul-18 05:30N 55°43' E 012°38'0 0.0
2017-Jul-18 05:00N 55°43' E 012°38'0 0.0
2017-Jul-18 04:30N 55°43' E 012°38'1 2.0
2017-Jul-18 04:00N 55°44' E 012°39'612.1
2017-Jul-18 03:30N 55°50' E 012°42'816.0
2017-Jul-18 03:00N 55°57' E 012°38'815.5
2017-Jul-18 02:30N 56°05' E 012°35'611.6
2017-Jul-18 02:00N 56°08' E 012°27'917.7
2017-Jul-18 01:30N 56°13' E 012°14'4417.9
2017-Jul-17 23:04N 56°54' E 011°46'118.2
2017-Jul-17 22:59N 56°56' E 011°45'1018.2
2017-Jul-17 22:27N 57°04' E 011°38'918.3
2017-Jul-17 21:58N 57°13' E 011°34'818.4
2017-Jul-17 21:30N 57°21' E 011°29'917.6
2017-Jul-17 21:00N 57°29' E 011°23'917.2
2017-Jul-17 20:31N 57°34' E 011°09'917.7
2017-Jul-17 20:00N 57°40' E 010°57'918.4
2017-Jul-17 19:30N 57°47' E 010°46'918.2
2017-Jul-17 19:00N 57°49' E 010°29'14716.3
2017-Jul-17 10:00N 56°12' E 007°06'2623.0 270 / 261018.7 5.4 15.011.316.0
2017-Jul-17 08:52N 55°50' E 006°41'718.2
2017-Jul-17 08:30N 55°44' E 006°36'918.1
2017-Jul-17 08:00N 55°36' E 006°28'918.2
2017-Jul-17 07:30N 55°28' E 006°21'918.3
2017-Jul-17 07:00N 55°20' E 006°14'4241.9
2017-Jul-17 06:00N 54°42' E 005°42'6212.9 280 / 211020.927.0 17.011.516.0
2017-Jul-17 01:12N 53°46' E 004°56'417.9
2017-Jul-17 00:58N 53°42' E 004°53'817.8
2017-Jul-17 00:30N 53°35' E 004°48'917.6
2017-Jul-17 00:00N 53°26' E 004°43'917.7
2017-Jul-16 23:30N 53°18' E 004°39'918.4
2017-Jul-16 23:00N 53°10' E 004°31'918.5
2017-Jul-16 22:30N 53°02' E 004°23'918.5
2017-Jul-16 22:00N 52°54' E 004°16'918.6
2017-Jul-16 21:30N 52°46' E 004°08'918.2
2017-Jul-16 21:00N 52°38' E 004°01'918.5
2017-Jul-16 20:30N 52°30' E 003°54'918.7
2017-Jul-16 20:00N 52°21' E 003°52'918.2
2017-Jul-16 19:30N 52°12' E 003°54'816.8
2017-Jul-16 19:00N 52°03' E 003°54'611.7
2017-Jul-16 18:30N 51°60' E 004°02'611.0
2017-Jul-16 18:00N 51°57' E 004°10'510.2
2017-Jul-16 17:30N 51°54' E 004°17'4 8.4
2017-Jul-16 17:00N 51°54' E 004°24'2 3.9
2017-Jul-16 16:30N 51°54' E 004°27'2 3.2
2017-Jul-16 16:00N 51°54' E 004°29'0 0.1
2017-Jul-16 15:30N 51°54' E 004°29'0 0.0
2017-Jul-16 15:00N 51°54' E 004°29'0 0.0
2017-Jul-16 14:30N 51°54' E 004°29'0 0.0
2017-Jul-16 14:00N 51°54' E 004°29'0 0.0
2017-Jul-16 13:30N 51°54' E 004°29'0 0.0
2017-Jul-16 13:00N 51°54' E 004°29'0 0.0
2017-Jul-16 12:30N 51°54' E 004°29'0 0.0
2017-Jul-16 12:00N 51°54' E 004°29'0 0.0
2017-Jul-16 11:30N 51°54' E 004°29'0 0.0
2017-Jul-16 11:00N 51°54' E 004°29'0 0.0
2017-Jul-16 10:30N 51°54' E 004°29'0 0.0
2017-Jul-16 09:58N 51°54' E 004°29'0 0.0
2017-Jul-16 09:30N 51°54' E 004°29'0 0.0
2017-Jul-16 09:00N 51°54' E 004°29'0 0.0
2017-Jul-16 08:27N 51°54' E 004°29'0 0.0
2017-Jul-16 08:00N 51°54' E 004°29'0 0.0
2017-Jul-16 07:30N 51°54' E 004°29'0 0.0
2017-Jul-16 07:00N 51°54' E 004°29'0 0.0
2017-Jul-16 06:30N 51°54' E 004°29'0 0.0
2017-Jul-16 06:00N 51°54' E 004°29'0 0.0
2017-Jul-16 05:30N 51°54' E 004°29'0 0.0
2017-Jul-16 05:00N 51°54' E 004°29'0 0.3
2017-Jul-16 04:30N 51°54' E 004°29'3 5.9
2017-Jul-16 04:00N 51°54' E 004°24'5 9.9
2017-Jul-16 03:30N 51°54' E 004°16'612.3
2017-Jul-16 03:00N 51°58' E 004°08'713.0
2017-Jul-16 02:30N 51°60' E 003°58'612.3
2017-Jul-16 02:00N 52°00' E 003°48'4 8.2
2017-Jul-16 01:31N 51°58' E 003°42'510.0
2017-Jul-16 01:00N 51°57' E 003°35'5 9.6
2017-Jul-16 00:30N 51°55' E 003°27'1911.2
2017-Jul-15 22:48N 51°50' E 002°57'410.6
2017-Jul-15 22:26N 51°49' E 002°51'610.6
2017-Jul-15 21:55N 51°48' E 002°43'610.5
2017-Jul-15 21:18N 51°44' E 002°34'310.5
2017-Jul-15 21:00N 51°42' E 002°31'510.2
2017-Jul-15 20:31N 51°38' E 002°26'510.1
2017-Jul-15 20:00N 51°34' E 002°21'510.6
2017-Jul-15 19:30N 51°30' E 002°16'510.8
2017-Jul-15 19:00N 51°26' E 002°10'5 9.9
2017-Jul-15 18:31N 51°21' E 002°08'510.5
2017-Jul-15 18:01N 51°16' E 002°07'510.5
2017-Jul-15 17:31N 51°12' E 001°60'510.8
2017-Jul-15 17:00N 51°10' E 001°53'510.9
2017-Jul-15 16:30N 51°06' E 001°46'611.9
2017-Jul-15 16:01N 51°02' E 001°39'612.4
2017-Jul-15 15:30N 50°58' E 001°32'612.6
2017-Jul-15 15:00N 50°52' E 001°27'1211.7
2017-Jul-15 14:00N 50°41' E 001°20'611.9
2017-Jul-15 13:30N 50°37' E 001°13'911.9
2017-Jul-15 12:47N 50°32' E 001°03'1512.0
2017-Jul-15 11:33N 50°26' E 000°42'112.0
2017-Jul-15 11:30N 50°26' E 000°41'612.6
2017-Jul-15 11:00N 50°24' E 000°31'612.6
2017-Jul-15 10:30N 50°23' E 000°22'612.8
2017-Jul-15 10:00N 50°21' E 000°12'714.4
2017-Jul-15 09:30N 50°18' E 000°02'713.9
2017-Jul-15 09:00N 50°17' W 000°09'713.7
2017-Jul-15 08:30N 50°15' W 000°19'713.3
2017-Jul-15 08:00N 50°13' W 000°29'713.0
2017-Jul-15 07:28N 50°11' W 000°40'612.6
2017-Jul-15 07:00N 50°09' W 000°49'612.2
2017-Jul-15 06:30N 50°08' W 000°58'612.2
2017-Jul-15 06:00N 50°06' W 001°07'8547.5
2017-Jul-15 06:00N 50°06' W 000°54'1429.2 290 / 71024.727.0 16.012.416.0
2017-Jul-15 05:30N 50°05' W 001°16'611.8
2017-Jul-15 05:01N 50°04' W 001°25'611.8
2017-Jul-15 04:31N 50°02' W 001°34'611.3
2017-Jul-15 04:01N 50°00' W 001°42'611.1
2017-Jul-15 03:30N 49°59' W 001°51'611.4
2017-Jul-15 03:00N 50°04' W 001°55'612.3
2017-Jul-15 02:30N 50°10' W 001°59'612.2
2017-Jul-15 02:00N 50°16' W 001°57'612.8
2017-Jul-15 01:30N 50°21' W 001°52'612.9
2017-Jul-15 01:01N 50°23' W 001°43'612.8
2017-Jul-15 00:30N 50°25' W 001°33'612.3
2017-Jul-15 00:00N 50°26' W 001°24'612.1
2017-Jul-14 23:30N 50°28' W 001°15'611.9
2017-Jul-14 23:00N 50°31' W 001°06'611.4
2017-Jul-14 22:31N 50°35' W 000°60'612.1
2017-Jul-14 22:00N 50°41' W 000°58'4 7.8
2017-Jul-14 21:31N 50°43' W 001°02'917.4
2017-Jul-14 21:01N 50°46' W 001°15'5 9.6
2017-Jul-14 20:30N 50°50' W 001°19'4 8.5
2017-Jul-14 20:00N 50°53' W 001°24'0 0.2
2017-Jul-14 19:29N 50°53' W 001°24'0 0.0
2017-Jul-14 18:59N 50°53' W 001°24'0 0.0
2017-Jul-14 18:29N 50°53' W 001°24'0 0.0
2017-Jul-14 17:59N 50°53' W 001°24'0 0.0
2017-Jul-14 17:29N 50°53' W 001°24'0 0.0
2017-Jul-14 16:59N 50°53' W 001°24'0 0.0
2017-Jul-14 16:29N 50°53' W 001°24'0 0.0
2017-Jul-14 15:59N 50°53' W 001°24'0 0.0
2017-Jul-14 15:29N 50°53' W 001°24'0 0.0
2017-Jul-14 14:59N 50°53' W 001°24'0 0.0
2017-Jul-14 14:29N 50°53' W 001°24'0 0.0
2017-Jul-14 13:59N 50°53' W 001°24'0 0.0
2017-Jul-14 13:29N 50°53' W 001°24'0 0.0
2017-Jul-14 12:59N 50°53' W 001°24'0 0.0
2017-Jul-14 12:29N 50°53' W 001°24'0 0.0
2017-Jul-14 11:56N 50°53' W 001°24'0 0.0
2017-Jul-14 11:29N 50°53' W 001°24'0 0.0
2017-Jul-14 10:59N 50°53' W 001°24'0 0.0
2017-Jul-14 10:29N 50°53' W 001°24'0 0.0
2017-Jul-14 09:59N 50°53' W 001°24'0 0.0
2017-Jul-14 09:29N 50°53' W 001°24'0 0.0
2017-Jul-14 08:59N 50°53' W 001°24'0 0.0
2017-Jul-14 08:29N 50°53' W 001°24'0 0.0
2017-Jul-14 07:59N 50°53' W 001°24'0 0.0
2017-Jul-14 07:29N 50°53' W 001°24'0 0.0
2017-Jul-14 06:59N 50°53' W 001°24'0 0.0
2017-Jul-14 06:29N 50°53' W 001°24'0 0.0
2017-Jul-14 05:59N 50°53' W 001°24'0 0.0
2017-Jul-14 05:29N 50°53' W 001°24'0 0.5
2017-Jul-14 05:00N 50°53' W 001°24'4 7.5
2017-Jul-14 04:30N 50°51' W 001°20'4 8.6
2017-Jul-14 04:00N 50°47' W 001°18'816.1
2017-Jul-14 03:30N 50°45' W 001°06'713.4
2017-Jul-14 03:00N 50°40' W 000°58'5 9.9
2017-Jul-14 02:30N 50°35' W 000°60'5 9.9
2017-Jul-14 02:00N 50°31' W 001°04'510.3
2017-Jul-14 01:30N 50°27' W 001°09'510.8
2017-Jul-14 01:00N 50°23' W 001°14'611.4
2017-Jul-14 00:30N 50°19' W 001°20'611.8
2017-Jul-14 00:00N 50°14' W 001°26'511.0
2017-Jul-13 23:30N 50°09' W 001°31'611.1
2017-Jul-13 23:00N 50°05' W 001°36'611.4
2017-Jul-13 22:30N 50°01' W 001°42'611.5
2017-Jul-13 22:00N 49°56' W 001°48'611.5
2017-Jul-13 21:30N 49°52' W 001°53'713.2
2017-Jul-13 20:58N 49°47' W 002°01'2513.8
2017-Jul-13 19:10N 49°23' W 002°14'512.3
2017-Jul-13 18:46N 49°22' W 002°22'412.7
2017-Jul-13 18:26N 49°24' W 002°28'4 4.3
2017-Jul-13 17:36N 49°27' W 002°30'0 0.1
2017-Jul-13 17:09N 49°27' W 002°30'0 0.1
2017-Jul-13 17:00N 49°27' W 002°30'0 0.0
2017-Jul-13 15:57N 49°27' W 002°30'0 0.0
2017-Jul-13 15:30N 49°27' W 002°30'0 0.0
2017-Jul-13 14:51N 49°27' W 002°30'0 0.0
2017-Jul-13 14:30N 49°27' W 002°30'0 0.0
2017-Jul-13 13:57N 49°27' W 002°30'0 0.0
2017-Jul-13 13:30N 49°27' W 002°30'0 0.0
2017-Jul-13 13:00N 49°27' W 002°30'0 0.1
2017-Jul-13 12:24N 49°27' W 002°30'0 0.2
2017-Jul-13 12:00N 49°27' W 002°30'0 0.0
2017-Jul-13 11:12N 49°27' W 002°30'0 0.0
2017-Jul-13 10:57N 49°27' W 002°30'0 0.0
2017-Jul-13 10:27N 49°27' W 002°30'0 0.0
2017-Jul-13 10:00N 49°27' W 002°30'0 0.0
2017-Jul-13 09:27N 49°27' W 002°30'0 0.0
2017-Jul-13 09:00N 49°27' W 002°30'0 0.0
2017-Jul-13 08:30N 49°27' W 002°30'0 0.0
2017-Jul-13 07:21N 49°27' W 002°30'0 0.1
2017-Jul-13 06:54N 49°27' W 002°30'0 0.9
2017-Jul-13 06:30N 49°27' W 002°30'5 8.3
2017-Jul-13 05:56N 49°23' W 002°34'512.3
2017-Jul-13 05:30N 49°23' W 002°42'713.2
2017-Jul-13 05:00N 49°22' W 002°52'713.6
2017-Jul-13 04:29N 49°21' W 003°03'714.1
2017-Jul-13 04:00N 49°20' W 003°13'814.4
2017-Jul-13 03:28N 49°20' W 003°25'613.9
2017-Jul-13 03:00N 49°19' W 003°35'713.5
2017-Jul-13 02:30N 49°18' W 003°45'714.0
2017-Jul-13 02:00N 49°18' W 003°56'714.0
2017-Jul-13 01:31N 49°18' W 004°06'714.0
2017-Jul-13 01:00N 49°18' W 004°17'814.2
2017-Jul-13 00:27N 49°19' W 004°29'714.4
2017-Jul-12 23:59N 49°20' W 004°39'714.6
2017-Jul-12 23:30N 49°20' W 004°50'714.1
2017-Jul-12 22:59N 49°21' W 005°01'713.7
2017-Jul-12 22:30N 49°26' W 005°09'713.7
2017-Jul-12 22:00N 49°30' W 005°18'1514.3
2017-Jul-12 20:55N 49°40' W 005°36'614.6
2017-Jul-12 20:30N 49°44' W 005°43'714.7
2017-Jul-12 20:00N 49°48' W 005°52'714.7
2017-Jul-12 19:30N 49°53' W 006°01'815.1
2017-Jul-12 19:00N 50°01' W 006°01'815.0
2017-Jul-12 18:30N 50°08' W 006°01'714.2
2017-Jul-12 18:00N 50°15' W 006°01'713.9
2017-Jul-12 17:29N 50°22' W 006°01'714.2
2017-Jul-12 17:00N 50°29' W 006°01'714.3
2017-Jul-12 16:31N 50°36' W 006°00'714.1
2017-Jul-12 16:00N 50°43' W 006°00'714.5
2017-Jul-12 15:31N 50°51' W 006°00'714.7
2017-Jul-12 15:01N 50°58' W 006°00'2122.6
2017-Jul-12 15:00N 51°00' W 006°00'1413.3 040 / 91021.210.8 19.312.817.0
2017-Jul-12 13:58N 51°14' W 006°01'715.1
2017-Jul-12 13:31N 51°21' W 006°01'815.2
2017-Jul-12 13:00N 51°28' W 006°00'815.3
2017-Jul-12 12:30N 51°36' W 006°00'  
Track history (hours):
 
Tides and Currents Weather Stations Pressure Air Temp Water Temp Dewpoint Dewpoint Depression Visibility Wind Speed Wind Dir Waves Ship Positions

Queen Elizabeth

Last reported at 2017-Jul-22 12:28 UTC. Time now 2017-Jul-22 12:41 UTC.
Position N 59°57' E 030°12'.

Length 294 m; draft 8 m.

Type: Passenger vessel. MMSI: 310625000.

Date/timePositionNaut miles runAvg speedWind from/ knotsBaromVisibWave heightAir tempDewpointWater temp
2017-Jul-22 12:28N 59°57' E 030°12'0 0.0
2017-Jul-22 11:58N 59°57' E 030°12'0 0.0
2017-Jul-22 11:28N 59°57' E 030°12'0 0.0
2017-Jul-22 10:58N 59°57' E 030°12'0 0.0
2017-Jul-22 10:28N 59°57' E 030°12'0 0.0
2017-Jul-22 09:58N 59°57' E 030°12'0 0.0
2017-Jul-22 09:28N 59°57' E 030°12'0 0.0
2017-Jul-22 08:58N 59°57' E 030°12'0 0.0
2017-Jul-22 08:28N 59°57' E 030°12'0 0.0
2017-Jul-22 07:58N 59°57' E 030°12'0 0.0
2017-Jul-22 07:28N 59°57' E 030°12'0 0.0
2017-Jul-22 06:58N 59°57' E 030°12'0 0.0
2017-Jul-22 06:28N 59°57' E 030°12'0 0.0
2017-Jul-22 05:58N 59°57' E 030°12'0 0.0
2017-Jul-22 05:28N 59°57' E 030°12'0 0.0
2017-Jul-22 04:58N 59°57' E 030°12'0 0.0
2017-Jul-22 04:28N 59°57' E 030°12'0 0.1
2017-Jul-22 04:00N 59°57' E 030°11'1 1.5
2017-Jul-22 03:30N 59°57' E 030°10'5 9.2
2017-Jul-22 03:01N 59°55' E 030°01'510.6
2017-Jul-22 02:30N 59°57' E 029°51'5 9.8
2017-Jul-22 02:01N 59°59' E 029°43'612.0
2017-Jul-22 01:30N 60°01' E 029°31'510.6
2017-Jul-22 01:01N 60°02' E 029°21'715.0
2017-Jul-22 00:31N 60°01' E 029°06'815.0
2017-Jul-22 00:00N 60°02' E 028°51'714.9
2017-Jul-21 23:31N 60°02' E 028°36'714.5
2017-Jul-21 23:01N 60°04' E 028°22'713.5
2017-Jul-21 22:31N 60°08' E 028°11'714.6
2017-Jul-21 22:01N 60°10' E 027°57'713.9
2017-Jul-21 21:31N 60°10' E 027°43'714.9
2017-Jul-21 21:01N 60°06' E 027°30'715.0
2017-Jul-21 20:31N 60°02' E 027°17'815.0
2017-Jul-21 20:00N 59°58' E 027°04'714.7
2017-Jul-21 19:31N 59°59' E 026°49'815.2
2017-Jul-21 19:00N 59°59' E 026°34'815.3
2017-Jul-21 18:31N 59°57' E 026°19'715.0
2017-Jul-21 18:00N 59°55' E 026°05'815.4
2017-Jul-21 17:31N 59°53' E 025°50'815.3
2017-Jul-21 17:00N 59°51' E 025°35'815.5
2017-Jul-21 16:30N 59°49' E 025°20'815.8
2017-Jul-21 16:00N 59°48' E 025°05'815.9
2017-Jul-21 15:31N 59°44' E 024°52'816.4
2017-Jul-21 15:01N 59°37' E 024°42'612.7
2017-Jul-21 14:30N 59°31' E 024°45'4 7.8
2017-Jul-21 14:01N 59°27' E 024°46'0 0.6
2017-Jul-21 13:30N 59°27' E 024°46'0 0.0
2017-Jul-21 13:00N 59°27' E 024°46'0 0.0
2017-Jul-21 12:30N 59°27' E 024°46'0 0.0
2017-Jul-21 12:00N 59°27' E 024°46'0 0.0
2017-Jul-21 11:30N 59°27' E 024°46'0 0.0
2017-Jul-21 11:00N 59°27' E 024°46'0 0.0
2017-Jul-21 10:30N 59°27' E 024°46'0 0.0
2017-Jul-21 10:00N 59°27' E 024°46'0 0.0
2017-Jul-21 09:30N 59°27' E 024°46'0 0.0
2017-Jul-21 09:00N 59°27' E 024°46'0 0.0
2017-Jul-21 08:30N 59°27' E 024°46'0 0.0
2017-Jul-21 08:00N 59°27' E 024°46'0 0.0
2017-Jul-21 07:30N 59°27' E 024°46'0 0.0
2017-Jul-21 06:57N 59°27' E 024°46'0 0.0
2017-Jul-21 06:30N 59°27' E 024°46'0 0.0
2017-Jul-21 06:00N 59°27' E 024°46'0 0.9
2017-Jul-21 05:30N 59°27' E 024°46'4 9.0
2017-Jul-21 05:01N 59°30' E 024°39'612.4
2017-Jul-21 04:31N 59°30' E 024°27'1019.8
2017-Jul-21 04:01N 59°29' E 024°07'1020.3
2017-Jul-21 03:31N 59°28' E 023°47'1020.3
2017-Jul-21 03:01N 59°27' E 023°27'1019.9
2017-Jul-21 02:31N 59°27' E 023°08'1019.8
2017-Jul-21 02:01N 59°26' E 022°48'1019.8
2017-Jul-21 01:31N 59°23' E 022°30'1019.8
2017-Jul-21 01:01N 59°23' E 022°10'7431.2
2017-Jul-21 01:00N 59°18' E 022°00'714.9 360 / 151015.810.8 15.011.316.0
2017-Jul-21 00:30N 59°23' E 021°51'1019.9
2017-Jul-21 00:00N 59°24' E 021°31'1019.6
2017-Jul-20 23:30N 59°24' E 021°12'1019.6
2017-Jul-20 23:00N 59°24' E 020°53'1019.7
2017-Jul-20 22:30N 59°25' E 020°34'1019.4
2017-Jul-20 22:00N 59°25' E 020°15'816.1
2017-Jul-20 21:30N 59°31' E 020°04'1121.0
2017-Jul-20 21:00N 59°40' E 019°53'1122.7
2017-Jul-20 20:30N 59°48' E 019°38'713.9
2017-Jul-20 20:00N 59°47' E 019°25'816.0
2017-Jul-20 19:30N 59°44' E 019°10'714.4
2017-Jul-20 19:01N 59°40' E 018°57'5 9.3
2017-Jul-20 18:30N 59°37' E 018°50'611.8
2017-Jul-20 18:01N 59°34' E 018°40'5 9.7
2017-Jul-20 17:30N 59°32' E 018°32'510.4
2017-Jul-20 17:00N 59°28' E 018°26'4 8.3
2017-Jul-20 16:30N 59°23' E 018°27'3 6.7
2017-Jul-20 16:00N 59°22' E 018°21'611.3
2017-Jul-20 15:30N 59°20' E 018°11'2 4.5
2017-Jul-20 14:59N 59°19' E 018°06'0 0.0
2017-Jul-20 13:59N 59°19' E 018°06'0 0.0
2017-Jul-20 13:29N 59°19' E 018°06'0 0.0
2017-Jul-20 12:56N 59°19' E 018°06'0 0.0
2017-Jul-20 12:29N 59°19' E 018°06'0 0.0
2017-Jul-20 11:59N 59°19' E 018°06'0 0.0
2017-Jul-20 11:29N 59°19' E 018°06'0 0.0
2017-Jul-20 10:59N 59°19' E 018°06'0 0.0
2017-Jul-20 10:29N 59°19' E 018°06'0 0.0
2017-Jul-20 09:59N 59°19' E 018°06'0 0.0
2017-Jul-20 09:29N 59°19' E 018°06'0 0.0
2017-Jul-20 08:59N 59°19' E 018°06'0 0.0
2017-Jul-20 08:29N 59°19' E 018°06'0 0.0
2017-Jul-20 07:59N 59°19' E 018°06'0 0.0
2017-Jul-20 07:29N 59°19' E 018°06'0 0.0
2017-Jul-20 06:59N 59°19' E 018°06'0 0.0
2017-Jul-20 06:29N 59°19' E 018°06'0 0.0
2017-Jul-20 05:59N 59°19' E 018°06'0 0.4
2017-Jul-20 05:30N 59°19' E 018°07'4 8.9
2017-Jul-20 05:00N 59°21' E 018°14'510.0
2017-Jul-20 04:30N 59°22' E 018°24'3 5.6
2017-Jul-20 04:00N 59°25' E 018°25'510.1
2017-Jul-20 03:30N 59°30' E 018°28'5 9.9
2017-Jul-20 03:00N 59°33' E 018°35'611.2
2017-Jul-20 02:30N 59°35' E 018°45'611.9
2017-Jul-20 02:00N 59°39' E 018°54'612.0
2017-Jul-20 01:30N 59°42' E 019°04'816.6
2017-Jul-20 01:00N 59°45' E 019°19'611.9
2017-Jul-20 00:30N 59°48' E 019°30'918.6
2017-Jul-20 00:00N 59°46' E 019°48'1019.9
2017-Jul-19 23:30N 59°39' E 020°02'919.0
2017-Jul-19 23:00N 59°30' E 020°10'1019.5
2017-Jul-19 22:30N 59°21' E 020°02'1020.3
2017-Jul-19 22:00N 59°13' E 019°50'1020.2
2017-Jul-19 21:30N 59°05' E 019°37'5520.3
2017-Jul-19 18:46N 58°19' E 018°39'520.4
2017-Jul-19 18:30N 58°15' E 018°34'1020.4
2017-Jul-19 18:01N 58°06' E 018°24'1020.2
2017-Jul-19 17:31N 57°57' E 018°16'5120.1
2017-Jul-19 14:57N 57°10' E 017°36'920.3
2017-Jul-19 14:31N 57°01' E 017°30'1020.2
2017-Jul-19 14:00N 56°52' E 017°24'1020.4
2017-Jul-19 13:31N 56°42' E 017°17'1020.4
2017-Jul-19 13:01N 56°33' E 017°10'211269.6
2017-Jul-19 13:00N 56°54' E 017°12'3163.8 060 / 51018.0 5.4 17.012.317.0
2017-Jul-19 12:31N 56°23' E 017°04'1020.1
2017-Jul-19 12:01N 56°14' E 016°58'1019.9
2017-Jul-19 11:31N 56°05' E 016°51'1019.8
2017-Jul-19 11:01N 55°59' E 016°37'1019.9
2017-Jul-19 10:31N 55°54' E 016°22'1020.1
2017-Jul-19 10:00N 55°49' E 016°06'1020.1
2017-Jul-19 09:31N 55°44' E 015°51'1020.1
2017-Jul-19 09:01N 55°39' E 015°35'1020.2
2017-Jul-19 08:31N 55°35' E 015°19'1020.0
2017-Jul-19 08:01N 55°30' E 015°04'1020.1
2017-Jul-19 07:31N 55°26' E 014°48'1019.5
2017-Jul-19 07:01N 55°20' E 014°34'1019.8
2017-Jul-19 06:31N 55°11' E 014°25'1019.9
2017-Jul-19 06:00N 55°04' E 014°13'1019.9
2017-Jul-19 05:31N 54°59' E 013°58'1020.1
2017-Jul-19 05:01N 54°56' E 013°41'8467.2
2017-Jul-19 05:00N 54°54' E 013°54'1735.1 230 / 41019.527.0 16.012.416.0
2017-Jul-19 04:30N 54°53' E 013°24'1019.9
2017-Jul-19 04:01N 54°50' E 013°08'1019.7
2017-Jul-19 03:30N 54°47' E 012°52'1019.3
2017-Jul-19 02:58N 54°42' E 012°36'919.4
2017-Jul-19 02:31N 54°36' E 012°24'918.9
2017-Jul-19 02:01N 54°28' E 012°15'1118.0
2017-Jul-19 01:24N 54°25' E 011°57'819.6
2017-Jul-19 01:00N 54°25' E 011°44'1019.7
2017-Jul-19 00:31N 54°29' E 011°28'1019.7
2017-Jul-19 00:01N 54°34' E 011°13'1019.1
2017-Jul-18 23:30N 54°39' E 010°59'816.3
2017-Jul-18 23:00N 54°46' E 010°52'815.8
2017-Jul-18 22:30N 54°54' E 010°53'1019.5
2017-Jul-18 22:01N 55°02' E 011°00'1019.3
2017-Jul-18 21:30N 55°12' E 011°05'1019.0
2017-Jul-18 21:00N 55°21' E 011°02'5413.4
2017-Jul-18 17:00N 56°06' E 011°54'41003.2 300 / 51019.627.0 17.011.517.0
2017-Jul-18 16:59N 56°10' E 011°57'919.2
2017-Jul-18 16:30N 56°12' E 012°13'918.5
2017-Jul-18 16:01N 56°09' E 012°29'917.1
2017-Jul-18 15:31N 56°03' E 012°40'714.7
2017-Jul-18 15:01N 55°55' E 012°39'1212.2
2017-Jul-18 14:00N 55°43' E 012°38'0 0.0
2017-Jul-18 13:30N 55°43' E 012°38'0 0.0
2017-Jul-18 13:00N 55°43' E 012°38'0 0.0
2017-Jul-18 12:30N 55°43' E 012°38'0 0.0
2017-Jul-18 12:00N 55°43' E 012°38'0 0.0
2017-Jul-18 11:30N 55°43' E 012°38'0 0.0
2017-Jul-18 11:00N 55°43' E 012°38'0 0.0
2017-Jul-18 10:30N 55°43' E 012°38'0 0.0
2017-Jul-18 10:00N 55°43' E 012°38'0 0.0
2017-Jul-18 09:30N 55°43' E 012°38'0 0.0
2017-Jul-18 09:00N 55°43' E 012°38'0 0.0
2017-Jul-18 08:30N 55°43' E 012°38'0 0.0
2017-Jul-18 08:00N 55°43' E 012°38'0 0.0
2017-Jul-18 07:30N 55°43' E 012°38'0 0.0
2017-Jul-18 07:00N 55°43' E 012°38'0 0.0
2017-Jul-18 06:30N 55°43' E 012°38'0 0.0
2017-Jul-18 06:00N 55°43' E 012°38'0 0.0
2017-Jul-18 05:30N 55°43' E 012°38'0 0.0
2017-Jul-18 05:00N 55°43' E 012°38'0 0.0
2017-Jul-18 04:30N 55°43' E 012°38'1 2.0
2017-Jul-18 04:00N 55°44' E 012°39'612.1
2017-Jul-18 03:30N 55°50' E 012°42'816.0
2017-Jul-18 03:00N 55°57' E 012°38'815.5
2017-Jul-18 02:30N 56°05' E 012°35'611.6
2017-Jul-18 02:00N 56°08' E 012°27'917.7
2017-Jul-18 01:30N 56°13' E 012°14'4417.9
2017-Jul-17 23:04N 56°54' E 011°46'118.2
2017-Jul-17 22:59N 56°56' E 011°45'1018.2
2017-Jul-17 22:27N 57°04' E 011°38'918.3
2017-Jul-17 21:58N 57°13' E 011°34'818.4
2017-Jul-17 21:30N 57°21' E 011°29'917.6
2017-Jul-17 21:00N 57°29' E 011°23'917.2
2017-Jul-17 20:31N 57°34' E 011°09'917.7
2017-Jul-17 20:00N 57°40' E 010°57'918.4
2017-Jul-17 19:30N 57°47' E 010°46'918.2
2017-Jul-17 19:00N 57°49' E 010°29'14716.3
2017-Jul-17 10:00N 56°12' E 007°06'2623.0 270 / 261018.7 5.4 15.011.316.0
2017-Jul-17 08:52N 55°50' E 006°41'718.2
2017-Jul-17 08:30N 55°44' E 006°36'918.1
2017-Jul-17 08:00N 55°36' E 006°28'918.2
2017-Jul-17 07:30N 55°28' E 006°21'918.3
2017-Jul-17 07:00N 55°20' E 006°14'4241.9
2017-Jul-17 06:00N 54°42' E 005°42'6212.9 280 / 211020.927.0 17.011.516.0
2017-Jul-17 01:12N 53°46' E 004°56'417.9
2017-Jul-17 00:58N 53°42' E 004°53'817.8
2017-Jul-17 00:30N 53°35' E 004°48'917.6
2017-Jul-17 00:00N 53°26' E 004°43'917.7
2017-Jul-16 23:30N 53°18' E 004°39'918.4
2017-Jul-16 23:00N 53°10' E 004°31'918.5
2017-Jul-16 22:30N 53°02' E 004°23'918.5
2017-Jul-16 22:00N 52°54' E 004°16'918.6
2017-Jul-16 21:30N 52°46' E 004°08'918.2
2017-Jul-16 21:00N 52°38' E 004°01'918.5
2017-Jul-16 20:30N 52°30' E 003°54'918.7
2017-Jul-16 20:00N 52°21' E 003°52'918.2
2017-Jul-16 19:30N 52°12' E 003°54'816.8
2017-Jul-16 19:00N 52°03' E 003°54'611.7
2017-Jul-16 18:30N 51°60' E 004°02'611.0
2017-Jul-16 18:00N 51°57' E 004°10'510.2
2017-Jul-16 17:30N 51°54' E 004°17'4 8.4
2017-Jul-16 17:00N 51°54' E 004°24'2 3.9
2017-Jul-16 16:30N 51°54' E 004°27'2 3.2
2017-Jul-16 16:00N 51°54' E 004°29'0 0.1
2017-Jul-16 15:30N 51°54' E 004°29'0 0.0
2017-Jul-16 15:00N 51°54' E 004°29'0 0.0
2017-Jul-16 14:30N 51°54' E 004°29'0 0.0
2017-Jul-16 14:00N 51°54' E 004°29'0 0.0
2017-Jul-16 13:30N 51°54' E 004°29'0 0.0
2017-Jul-16 13:00N 51°54' E 004°29'0 0.0
2017-Jul-16 12:30N 51°54' E 004°29'0 0.0
2017-Jul-16 12:00N 51°54' E 004°29'0 0.0
2017-Jul-16 11:30N 51°54' E 004°29'0 0.0
2017-Jul-16 11:00N 51°54' E 004°29'0 0.0
2017-Jul-16 10:30N 51°54' E 004°29'0 0.0
2017-Jul-16 09:58N 51°54' E 004°29'0 0.0
2017-Jul-16 09:30N 51°54' E 004°29'0 0.0
2017-Jul-16 09:00N 51°54' E 004°29'0 0.0
2017-Jul-16 08:27N 51°54' E 004°29'0 0.0
2017-Jul-16 08:00N 51°54' E 004°29'0 0.0
2017-Jul-16 07:30N 51°54' E 004°29'0 0.0
2017-Jul-16 07:00N 51°54' E 004°29'0 0.0
2017-Jul-16 06:30N 51°54' E 004°29'0 0.0
2017-Jul-16 06:00N 51°54' E 004°29'0 0.0
2017-Jul-16 05:30N 51°54' E 004°29'0 0.0
2017-Jul-16 05:00N 51°54' E 004°29'0 0.3
2017-Jul-16 04:30N 51°54' E 004°29'3 5.9
2017-Jul-16 04:00N 51°54' E 004°24'5 9.9
2017-Jul-16 03:30N 51°54' E 004°16'612.3
2017-Jul-16 03:00N 51°58' E 004°08'713.0
2017-Jul-16 02:30N 51°60' E 003°58'612.3
2017-Jul-16 02:00N 52°00' E 003°48'4 8.2
2017-Jul-16 01:31N 51°58' E 003°42'510.0
2017-Jul-16 01:00N 51°57' E 003°35'5 9.6
2017-Jul-16 00:30N 51°55' E 003°27'1911.2
2017-Jul-15 22:48N 51°50' E 002°57'410.6
2017-Jul-15 22:26N 51°49' E 002°51'610.6
2017-Jul-15 21:55N 51°48' E 002°43'610.5
2017-Jul-15 21:18N 51°44' E 002°34'310.5
2017-Jul-15 21:00N 51°42' E 002°31'510.2
2017-Jul-15 20:31N 51°38' E 002°26'510.1
2017-Jul-15 20:00N 51°34' E 002°21'510.6
2017-Jul-15 19:30N 51°30' E 002°16'510.8
2017-Jul-15 19:00N 51°26' E 002°10'5 9.9
2017-Jul-15 18:31N 51°21' E 002°08'510.5
2017-Jul-15 18:01N 51°16' E 002°07'510.5
2017-Jul-15 17:31N 51°12' E 001°60'510.8
2017-Jul-15 17:00N 51°10' E 001°53'510.9
2017-Jul-15 16:30N 51°06' E 001°46'611.9
2017-Jul-15 16:01N 51°02' E 001°39'612.4
2017-Jul-15 15:30N 50°58' E 001°32'612.6
2017-Jul-15 15:00N 50°52' E 001°27'1211.7
2017-Jul-15 14:00N 50°41' E 001°20'611.9
2017-Jul-15 13:30N 50°37' E 001°13'911.9
2017-Jul-15 12:47N 50°32' E 001°03'1512.0
2017-Jul-15 11:33N 50°26' E 000°42'112.0
2017-Jul-15 11:30N 50°26' E 000°41'612.6
2017-Jul-15 11:00N 50°24' E 000°31'612.6
2017-Jul-15 10:30N 50°23' E 000°22'612.8
2017-Jul-15 10:00N 50°21' E 000°12'714.4
2017-Jul-15 09:30N 50°18' E 000°02'713.9
2017-Jul-15 09:00N 50°17' W 000°09'713.7
2017-Jul-15 08:30N 50°15' W 000°19'713.3
2017-Jul-15 08:00N 50°13' W 000°29'713.0
2017-Jul-15 07:28N 50°11' W 000°40'612.6
2017-Jul-15 07:00N 50°09' W 000°49'612.2
2017-Jul-15 06:30N 50°08' W 000°58'612.2
2017-Jul-15 06:00N 50°06' W 001°07'8547.5
2017-Jul-15 06:00N 50°06' W 000°54'1429.2 290 / 71024.727.0 16.012.416.0
2017-Jul-15 05:30N 50°05' W 001°16'611.8
2017-Jul-15 05:01N 50°04' W 001°25'611.8
2017-Jul-15 04:31N 50°02' W 001°34'611.3
2017-Jul-15 04:01N 50°00' W 001°42'611.1
2017-Jul-15 03:30N 49°59' W 001°51'611.4
2017-Jul-15 03:00N 50°04' W 001°55'612.3
2017-Jul-15 02:30N 50°10' W 001°59'612.2
2017-Jul-15 02:00N 50°16' W 001°57'612.8
2017-Jul-15 01:30N 50°21' W 001°52'612.9
2017-Jul-15 01:01N 50°23' W 001°43'612.8
2017-Jul-15 00:30N 50°25' W 001°33'612.3
2017-Jul-15 00:00N 50°26' W 001°24'612.1
2017-Jul-14 23:30N 50°28' W 001°15'611.9
2017-Jul-14 23:00N 50°31' W 001°06'611.4
2017-Jul-14 22:31N 50°35' W 000°60'612.1
2017-Jul-14 22:00N 50°41' W 000°58'4 7.8
2017-Jul-14 21:31N 50°43' W 001°02'917.4
2017-Jul-14 21:01N 50°46' W 001°15'5 9.6
2017-Jul-14 20:30N 50°50' W 001°19'4 8.5
2017-Jul-14 20:00N 50°53' W 001°24'0 0.2
2017-Jul-14 19:29N 50°53' W 001°24'0 0.0
2017-Jul-14 18:59N 50°53' W 001°24'0 0.0
2017-Jul-14 18:29N 50°53' W 001°24'0 0.0
2017-Jul-14 17:59N 50°53' W 001°24'0 0.0
2017-Jul-14 17:29N 50°53' W 001°24'0 0.0
2017-Jul-14 16:59N 50°53' W 001°24'0 0.0
2017-Jul-14 16:29N 50°53' W 001°24'0 0.0
2017-Jul-14 15:59N 50°53' W 001°24'0 0.0
2017-Jul-14 15:29N 50°53' W 001°24'0 0.0
2017-Jul-14 14:59N 50°53' W 001°24'0 0.0
2017-Jul-14 14:29N 50°53' W 001°24'0 0.0
2017-Jul-14 13:59N 50°53' W 001°24'0 0.0
2017-Jul-14 13:29N 50°53' W 001°24'0 0.0
2017-Jul-14 12:59N 50°53' W 001°24'0 0.0
2017-Jul-14 12:29N 50°53' W 001°24'0 0.0
2017-Jul-14 11:56N 50°53' W 001°24'0 0.0
2017-Jul-14 11:29N 50°53' W 001°24'0 0.0
2017-Jul-14 10:59N 50°53' W 001°24'0 0.0
2017-Jul-14 10:29N 50°53' W 001°24'0 0.0
2017-Jul-14 09:59N 50°53' W 001°24'0 0.0
2017-Jul-14 09:29N 50°53' W 001°24'0 0.0
2017-Jul-14 08:59N 50°53' W 001°24'0 0.0
2017-Jul-14 08:29N 50°53' W 001°24'0 0.0
2017-Jul-14 07:59N 50°53' W 001°24'0 0.0
2017-Jul-14 07:29N 50°53' W 001°24'0 0.0
2017-Jul-14 06:59N 50°53' W 001°24'0 0.0
2017-Jul-14 06:29N 50°53' W 001°24'0 0.0
2017-Jul-14 05:59N 50°53' W 001°24'0 0.0
2017-Jul-14 05:29N 50°53' W 001°24'0 0.5
2017-Jul-14 05:00N 50°53' W 001°24'4 7.5
2017-Jul-14 04:30N 50°51' W 001°20'4 8.6
2017-Jul-14 04:00N 50°47' W 001°18'816.1
2017-Jul-14 03:30N 50°45' W 001°06'713.4
2017-Jul-14 03:00N 50°40' W 000°58'5 9.9
2017-Jul-14 02:30N 50°35' W 000°60'5 9.9
2017-Jul-14 02:00N 50°31' W 001°04'510.3
2017-Jul-14 01:30N 50°27' W 001°09'510.8
2017-Jul-14 01:00N 50°23' W 001°14'611.4
2017-Jul-14 00:30N 50°19' W 001°20'611.8
2017-Jul-14 00:00N 50°14' W 001°26'511.0
2017-Jul-13 23:30N 50°09' W 001°31'611.1
2017-Jul-13 23:00N 50°05' W 001°36'611.4
2017-Jul-13 22:30N 50°01' W 001°42'611.5
2017-Jul-13 22:00N 49°56' W 001°48'611.5
2017-Jul-13 21:30N 49°52' W 001°53'713.2
2017-Jul-13 20:58N 49°47' W 002°01'2513.8
2017-Jul-13 19:10N 49°23' W 002°14'512.3
2017-Jul-13 18:46N 49°22' W 002°22'412.7
2017-Jul-13 18:26N 49°24' W 002°28'4 4.3
2017-Jul-13 17:36N 49°27' W 002°30'0 0.1
2017-Jul-13 17:09N 49°27' W 002°30'0 0.1
2017-Jul-13 17:00N 49°27' W 002°30'0 0.0
2017-Jul-13 15:57N 49°27' W 002°30'0 0.0
2017-Jul-13 15:30N 49°27' W 002°30'0 0.0
2017-Jul-13 14:51N 49°27' W 002°30'0 0.0
2017-Jul-13 14:30N 49°27' W 002°30'0 0.0
2017-Jul-13 13:57N 49°27' W 002°30'0 0.0
2017-Jul-13 13:30N 49°27' W 002°30'0 0.0
2017-Jul-13 13:00N 49°27' W 002°30'0 0.1
2017-Jul-13 12:24N 49°27' W 002°30'0 0.2
2017-Jul-13 12:00N 49°27' W 002°30'0 0.0
2017-Jul-13 11:12N 49°27' W 002°30'0 0.0
2017-Jul-13 10:57N 49°27' W 002°30'0 0.0
2017-Jul-13 10:27N 49°27' W 002°30'0 0.0
2017-Jul-13 10:00N 49°27' W 002°30'0 0.0
2017-Jul-13 09:27N 49°27' W 002°30'0 0.0
2017-Jul-13 09:00N 49°27' W 002°30'0 0.0
2017-Jul-13 08:30N 49°27' W 002°30'0 0.0
2017-Jul-13 07:21N 49°27' W 002°30'0 0.1
2017-Jul-13 06:54N 49°27' W 002°30'0 0.9
2017-Jul-13 06:30N 49°27' W 002°30'5 8.3
2017-Jul-13 05:56N 49°23' W 002°34'512.3
2017-Jul-13 05:30N 49°23' W 002°42'713.2
2017-Jul-13 05:00N 49°22' W 002°52'713.6
2017-Jul-13 04:29N 49°21' W 003°03'714.1
2017-Jul-13 04:00N 49°20' W 003°13'814.4
2017-Jul-13 03:28N 49°20' W 003°25'613.9
2017-Jul-13 03:00N 49°19' W 003°35'713.5
2017-Jul-13 02:30N 49°18' W 003°45'714.0
2017-Jul-13 02:00N 49°18' W 003°56'714.0
2017-Jul-13 01:31N 49°18' W 004°06'714.0
2017-Jul-13 01:00N 49°18' W 004°17'814.2
2017-Jul-13 00:27N 49°19' W 004°29'714.4
2017-Jul-12 23:59N 49°20' W 004°39'714.6
2017-Jul-12 23:30N 49°20' W 004°50'714.1
2017-Jul-12 22:59N 49°21' W 005°01'713.7
2017-Jul-12 22:30N 49°26' W 005°09'713.7
2017-Jul-12 22:00N 49°30' W 005°18'1514.3
2017-Jul-12 20:55N 49°40' W 005°36'614.6
2017-Jul-12 20:30N 49°44' W 005°43'714.7
2017-Jul-12 20:00N 49°48' W 005°52'714.7
2017-Jul-12 19:30N 49°53' W 006°01'815.1
2017-Jul-12 19:00N 50°01' W 006°01'815.0
2017-Jul-12 18:30N 50°08' W 006°01'714.2
2017-Jul-12 18:00N 50°15' W 006°01'713.9
2017-Jul-12 17:29N 50°22' W 006°01'714.2
2017-Jul-12 17:00N 50°29' W 006°01'714.3
2017-Jul-12 16:31N 50°36' W 006°00'714.1
2017-Jul-12 16:00N 50°43' W 006°00'714.5
2017-Jul-12 15:31N 50°51' W 006°00'714.7
2017-Jul-12 15:01N 50°58' W 006°00'2122.6
2017-Jul-12 15:00N 51°00' W 006°00'1413.3 040 / 91021.210.8 19.312.817.0
2017-Jul-12 13:58N 51°14' W 006°01'715.1
2017-Jul-12 13:31N 51°21' W 006°01'815.2
2017-Jul-12 13:00N 51°28' W 006°00'815.3
2017-Jul-12 12:30N 51°36' W 006°00'  

Dump ship's entire track history